createdAt,value
2018-12-20T00:00:02.209Z,9.656064
2018-12-20T00:00:15.001Z,8.04672
2018-12-20T00:00:28.006Z,8.04672
2018-12-20T00:00:40.948Z,8.04672
2018-12-20T00:00:54.173Z,8.04672
2018-12-20T00:01:07.263Z,8.04672
2018-12-20T00:01:20.192Z,9.656064
2018-12-20T00:01:32.868Z,9.656064
2018-12-20T00:01:45.778Z,9.656064
2018-12-20T00:01:58.487Z,9.656064
2018-12-20T00:02:11.443Z,6.437376
2018-12-20T00:02:24.176Z,8.04672
2018-12-20T00:02:37.006Z,11.265408
2018-12-20T00:02:49.886Z,11.265408
2018-12-20T00:03:02.587Z,11.265408
2018-12-20T00:03:15.423Z,9.656064
2018-12-20T00:03:28.321Z,11.265408
2018-12-20T00:03:41.068Z,11.265408
2018-12-20T00:03:53.955Z,11.265408
2018-12-20T00:04:06.839Z,6.437376
2018-12-20T00:04:19.735Z,6.437376
2018-12-20T00:04:32.527Z,6.437376
2018-12-20T00:04:46.652Z,6.437376
2018-12-20T00:04:59.737Z,6.437376
2018-12-20T00:05:12.740Z,4.828032
2018-12-20T00:05:25.324Z,4.828032
2018-12-20T00:05:38.267Z,4.828032
2018-12-20T00:05:51.461Z,4.828032
2018-12-20T00:06:04.607Z,3.218688
2018-12-20T00:06:17.594Z,3.218688
2018-12-20T00:06:30.556Z,3.218688
2018-12-20T00:06:43.150Z,3.218688
2018-12-20T00:06:56.314Z,4.828032
2018-12-20T00:07:09.518Z,1.609344
2018-12-20T00:07:22.526Z,8.04672
2018-12-20T00:07:35.308Z,8.04672
2018-12-20T00:07:48.253Z,8.04672
2018-12-20T00:08:00.868Z,9.656064
2018-12-20T00:08:14.057Z,9.656064
2018-12-20T00:08:27.201Z,9.656064
2018-12-20T00:08:40.501Z,9.656064
2018-12-20T00:08:53.494Z,9.656064
2018-12-20T00:09:06.522Z,6.437376
2018-12-20T00:09:19.312Z,6.437376
2018-12-20T00:09:32.389Z,8.04672
2018-12-20T00:09:45.101Z,8.04672
2018-12-20T00:09:58.104Z,8.04672
2018-12-20T00:10:11.110Z,3.218688
2018-12-20T00:10:24.030Z,6.437376
2018-12-20T00:10:36.745Z,6.437376
2018-12-20T00:10:49.764Z,6.437376
2018-12-20T00:11:03.004Z,6.437376
2018-12-20T00:11:15.659Z,8.04672
2018-12-20T00:11:28.987Z,9.656064
2018-12-20T00:11:42.188Z,9.656064
2018-12-20T00:11:55.239Z,9.656064
2018-12-20T00:12:08.271Z,6.437376
2018-12-20T00:12:21.072Z,8.04672
2018-12-20T00:12:34.300Z,8.04672
2018-12-20T00:12:47.093Z,8.04672
2018-12-20T00:13:00.165Z,8.04672
2018-12-20T00:13:13.376Z,6.437376
2018-12-20T00:13:26.516Z,6.437376
2018-12-20T00:13:39.560Z,6.437376
2018-12-20T00:13:52.250Z,6.437376
2018-12-20T00:14:05.336Z,6.437376
2018-12-20T00:14:18.690Z,6.437376
2018-12-20T00:14:37.958Z,8.04672
2018-12-20T00:14:50.885Z,8.04672
2018-12-20T00:15:03.668Z,6.437376
2018-12-20T00:15:16.723Z,8.04672
2018-12-20T00:15:29.732Z,8.04672
2018-12-20T00:15:42.559Z,8.04672
2018-12-20T00:15:55.722Z,8.04672
2018-12-20T00:16:08.554Z,6.437376
2018-12-20T00:16:21.872Z,6.437376
2018-12-20T00:16:34.814Z,6.437376
2018-12-20T00:16:47.464Z,6.437376
2018-12-20T00:17:00.526Z,6.437376
2018-12-20T00:17:13.779Z,6.437376
2018-12-20T00:17:26.846Z,6.437376
2018-12-20T00:17:39.994Z,8.04672
2018-12-20T00:17:53.392Z,8.04672
2018-12-20T00:18:06.351Z,4.828032
2018-12-20T00:18:19.058Z,6.437376
2018-12-20T00:18:31.981Z,8.04672
2018-12-20T00:18:45.377Z,11.265408
2018-12-20T00:18:58.551Z,11.265408
2018-12-20T00:19:11.368Z,11.265408
2018-12-20T00:19:24.147Z,11.265408
2018-12-20T00:19:36.987Z,11.265408
2018-12-20T00:19:49.910Z,11.265408
2018-12-20T00:20:02.917Z,6.437376
2018-12-20T00:20:15.561Z,6.437376
2018-12-20T00:20:28.586Z,6.437376
2018-12-20T00:20:41.561Z,8.04672
2018-12-20T00:20:54.483Z,8.04672
2018-12-20T00:21:07.674Z,8.04672
2018-12-20T00:21:20.595Z,8.04672
2018-12-20T00:21:33.701Z,8.04672
2018-12-20T00:21:46.569Z,11.265408
2018-12-20T00:21:59.256Z,11.265408
2018-12-20T00:22:12.156Z,8.04672
2018-12-20T00:22:24.810Z,8.04672
2018-12-20T00:22:37.914Z,8.04672
2018-12-20T00:22:50.794Z,11.265408
2018-12-20T00:23:03.408Z,6.437376
2018-12-20T00:23:16.251Z,6.437376
2018-12-20T00:23:28.893Z,6.437376
2018-12-20T00:23:41.789Z,6.437376
2018-12-20T00:23:54.521Z,6.437376
2018-12-20T00:24:07.179Z,4.828032
2018-12-20T00:24:20.475Z,8.04672
2018-12-20T00:24:33.739Z,9.656064
2018-12-20T00:24:46.783Z,9.656064
2018-12-20T00:24:59.706Z,11.265408
2018-12-20T00:25:12.855Z,9.656064
2018-12-20T00:25:25.966Z,9.656064
2018-12-20T00:25:39.072Z,9.656064
2018-12-20T00:25:52.250Z,9.656064
2018-12-20T00:26:05.056Z,8.04672
2018-12-20T00:26:18.434Z,8.04672
2018-12-20T00:26:31.148Z,8.04672
2018-12-20T00:26:44.704Z,8.04672
2018-12-20T00:26:57.702Z,8.04672
2018-12-20T00:27:11.264Z,9.656064
2018-12-20T00:27:24.432Z,9.656064
2018-12-20T00:27:37.550Z,9.656064
2018-12-20T00:27:50.527Z,9.656064
2018-12-20T00:28:03.612Z,6.437376
2018-12-20T00:28:16.347Z,8.04672
2018-12-20T00:28:29.101Z,8.04672
2018-12-20T00:28:42.072Z,9.656064
2018-12-20T00:28:55.296Z,9.656064
2018-12-20T00:29:08.184Z,6.437376
2018-12-20T00:29:21.089Z,8.04672
2018-12-20T00:29:33.993Z,9.656064
2018-12-20T00:29:47.099Z,9.656064
2018-12-20T00:30:00.130Z,9.656064
2018-12-20T00:30:13.599Z,6.437376
2018-12-20T00:30:26.754Z,9.656064
2018-12-20T00:30:39.636Z,12.874752
2018-12-20T00:30:52.604Z,12.874752
2018-12-20T00:31:05.588Z,8.04672
2018-12-20T00:31:25.306Z,8.04672
2018-12-20T00:31:38.126Z,8.04672
2018-12-20T00:31:51.375Z,8.04672
2018-12-20T00:32:04.525Z,6.437376
2018-12-20T00:32:17.419Z,11.265408
2018-12-20T00:32:30.176Z,11.265408
2018-12-20T00:32:42.962Z,11.265408
2018-12-20T00:32:56.210Z,11.265408
2018-12-20T00:33:08.902Z,9.656064
2018-12-20T00:33:21.997Z,9.656064
2018-12-20T00:33:35.222Z,9.656064
2018-12-20T00:33:48.057Z,9.656064
2018-12-20T00:34:01.184Z,9.656064
2018-12-20T00:34:14.040Z,8.04672
2018-12-20T00:34:27.054Z,9.656064
2018-12-20T00:34:40.221Z,9.656064
2018-12-20T00:34:53.432Z,9.656064
2018-12-20T00:35:06.985Z,8.04672
2018-12-20T00:35:20.487Z,12.874752
2018-12-20T00:35:33.787Z,12.874752
2018-12-20T00:35:47.485Z,12.874752
2018-12-20T00:36:00.576Z,12.874752
2018-12-20T00:36:14.182Z,9.656064
2018-12-20T00:36:27.779Z,9.656064
2018-12-20T00:36:41.055Z,9.656064
2018-12-20T00:36:54.399Z,9.656064
2018-12-20T00:37:07.153Z,3.218688
2018-12-20T00:37:20.601Z,3.218688
2018-12-20T00:37:33.639Z,3.218688
2018-12-20T00:37:46.380Z,6.437376
2018-12-20T00:37:59.823Z,9.656064
2018-12-20T00:38:13.068Z,8.04672
2018-12-20T00:38:26.487Z,8.04672
2018-12-20T00:38:39.639Z,8.04672
2018-12-20T00:38:52.585Z,8.04672
2018-12-20T00:39:05.861Z,6.437376
2018-12-20T00:39:19.103Z,6.437376
2018-12-20T00:39:31.910Z,6.437376
2018-12-20T00:39:45.119Z,6.437376
2018-12-20T00:39:58.347Z,6.437376
2018-12-20T00:40:18.651Z,9.656064
2018-12-20T00:40:31.417Z,9.656064
2018-12-20T00:40:44.655Z,9.656064
2018-12-20T00:40:58.022Z,9.656064
2018-12-20T00:41:11.064Z,8.04672
2018-12-20T00:41:24.098Z,8.04672
2018-12-20T00:41:37.369Z,8.04672
2018-12-20T00:41:50.397Z,8.04672
2018-12-20T00:42:03.402Z,3.218688
2018-12-20T00:42:16.484Z,4.828032
2018-12-20T00:42:29.626Z,6.437376
2018-12-20T00:42:42.573Z,6.437376
2018-12-20T00:42:55.692Z,6.437376
2018-12-20T00:43:08.607Z,8.04672
2018-12-20T00:43:21.379Z,12.874752
2018-12-20T00:43:34.696Z,12.874752
2018-12-20T00:43:47.779Z,12.874752
2018-12-20T00:44:00.575Z,12.874752
2018-12-20T00:44:13.380Z,8.04672
2018-12-20T00:44:26.320Z,8.04672
2018-12-20T00:44:46.803Z,8.04672
2018-12-20T00:44:59.744Z,8.04672
2018-12-20T00:45:12.833Z,9.656064
2018-12-20T00:45:26.373Z,9.656064
2018-12-20T00:45:39.783Z,9.656064
2018-12-20T00:45:52.966Z,9.656064
2018-12-20T00:46:05.773Z,6.437376
2018-12-20T00:46:18.888Z,9.656064
2018-12-20T00:46:31.957Z,11.265408
2018-12-20T00:46:44.678Z,11.265408
2018-12-20T00:46:57.166Z,11.265408
2018-12-20T00:47:09.995Z,9.656064
2018-12-20T00:47:23.323Z,9.656064
2018-12-20T00:47:36.491Z,11.265408
2018-12-20T00:47:49.524Z,11.265408
2018-12-20T00:48:02.508Z,11.265408
2018-12-20T00:48:15.761Z,6.437376
2018-12-20T00:48:28.617Z,6.437376
2018-12-20T00:48:41.695Z,6.437376
2018-12-20T00:48:54.970Z,8.04672
2018-12-20T00:49:07.829Z,6.437376
2018-12-20T00:49:20.993Z,6.437376
2018-12-20T00:49:34.239Z,6.437376
2018-12-20T00:49:47.597Z,8.04672
2018-12-20T00:50:00.526Z,8.04672
2018-12-20T00:50:13.883Z,6.437376
2018-12-20T00:50:26.694Z,6.437376
2018-12-20T00:50:39.685Z,6.437376
2018-12-20T00:50:52.930Z,6.437376
2018-12-20T00:51:06.217Z,11.265408
2018-12-20T00:51:19.475Z,11.265408
2018-12-20T00:51:32.806Z,11.265408
2018-12-20T00:51:46.021Z,11.265408
2018-12-20T00:51:59.109Z,11.265408
2018-12-20T00:52:12.052Z,6.437376
2018-12-20T00:52:25.316Z,6.437376
2018-12-20T00:52:38.512Z,6.437376
2018-12-20T00:52:51.724Z,8.04672
2018-12-20T00:53:04.917Z,11.265408
2018-12-20T00:53:17.816Z,12.874752
2018-12-20T00:53:31.022Z,12.874752
2018-12-20T00:53:44.785Z,12.874752
2018-12-20T00:53:58.046Z,12.874752
2018-12-20T00:54:10.800Z,8.04672
2018-12-20T00:54:23.969Z,9.656064
2018-12-20T00:54:36.771Z,9.656064
2018-12-20T00:54:49.773Z,9.656064
2018-12-20T00:55:02.917Z,9.656064
2018-12-20T00:55:16.328Z,9.656064
2018-12-20T00:55:29.586Z,11.265408
2018-12-20T00:55:42.941Z,11.265408
2018-12-20T00:55:56.042Z,11.265408
2018-12-20T00:56:08.959Z,3.218688
2018-12-20T00:56:21.857Z,8.04672
2018-12-20T00:56:34.535Z,8.04672
2018-12-20T00:56:47.655Z,8.04672
2018-12-20T00:57:00.832Z,8.04672
2018-12-20T00:57:14.130Z,6.437376
2018-12-20T00:57:27.284Z,6.437376
2018-12-20T00:57:39.871Z,6.437376
2018-12-20T00:57:53.024Z,6.437376
2018-12-20T00:58:06.549Z,3.218688
2018-12-20T00:58:19.587Z,3.218688
2018-12-20T00:58:32.556Z,4.828032
2018-12-20T00:58:45.408Z,4.828032
2018-12-20T00:58:58.577Z,4.828032
2018-12-20T00:59:11.425Z,1.609344
2018-12-20T00:59:24.433Z,3.218688
2018-12-20T00:59:37.486Z,3.218688
2018-12-20T00:59:50.697Z,8.04672
2018-12-20T01:00:03.699Z,11.265408
2018-12-20T01:00:16.916Z,11.265408
2018-12-20T01:00:30.132Z,11.265408
2018-12-20T01:00:43.563Z,11.265408
2018-12-20T01:00:56.573Z,11.265408
2018-12-20T01:01:09.406Z,8.04672
2018-12-20T01:01:22.862Z,8.04672
2018-12-20T01:01:35.980Z,8.04672
2018-12-20T01:01:49.373Z,8.04672
2018-12-20T01:02:02.585Z,8.04672
2018-12-20T01:02:15.355Z,3.218688
2018-12-20T01:02:28.563Z,8.04672
2018-12-20T01:02:41.361Z,8.04672
2018-12-20T01:03:01.076Z,8.04672
2018-12-20T01:03:14.183Z,8.04672
2018-12-20T01:03:27.297Z,8.04672
2018-12-20T01:03:40.733Z,9.656064
2018-12-20T01:03:53.837Z,9.656064
2018-12-20T01:04:07.052Z,8.04672
2018-12-20T01:04:20.332Z,8.04672
2018-12-20T01:04:33.382Z,8.04672
2018-12-20T01:04:46.747Z,8.04672
2018-12-20T01:04:59.648Z,8.04672
2018-12-20T01:05:13.007Z,3.218688
2018-12-20T01:05:25.890Z,8.04672
2018-12-20T01:05:39.194Z,8.04672
2018-12-20T01:05:52.008Z,8.04672
2018-12-20T01:06:05.192Z,3.218688
2018-12-20T01:06:18.850Z,4.828032
2018-12-20T01:06:32.135Z,6.437376
2018-12-20T01:06:45.198Z,6.437376
2018-12-20T01:06:57.923Z,6.437376
2018-12-20T01:07:11.009Z,4.828032
2018-12-20T01:07:23.773Z,4.828032
2018-12-20T01:07:36.979Z,8.04672
2018-12-20T01:07:50.319Z,8.04672
2018-12-20T01:08:03.223Z,8.04672
2018-12-20T01:08:16.290Z,8.04672
2018-12-20T01:08:29.458Z,8.04672
2018-12-20T01:08:42.905Z,8.04672
2018-12-20T01:08:56.021Z,8.04672
2018-12-20T01:09:08.907Z,3.218688
2018-12-20T01:09:22.064Z,3.218688
2018-12-20T01:09:35.465Z,4.828032
2018-12-20T01:09:48.493Z,6.437376
2018-12-20T01:10:01.949Z,6.437376
2018-12-20T01:10:14.947Z,4.828032
2018-12-20T01:10:27.922Z,4.828032
2018-12-20T01:10:41.149Z,4.828032
2018-12-20T01:10:54.442Z,6.437376
2018-12-20T01:11:07.714Z,6.437376
2018-12-20T01:11:20.815Z,6.437376
2018-12-20T01:11:33.976Z,6.437376
2018-12-20T01:11:47.377Z,8.04672
2018-12-20T01:12:00.166Z,9.656064
2018-12-20T01:12:13.193Z,8.04672
2018-12-20T01:12:26.308Z,8.04672
2018-12-20T01:12:39.633Z,8.04672
2018-12-20T01:12:52.577Z,8.04672
2018-12-20T01:13:05.922Z,6.437376
2018-12-20T01:13:19.072Z,6.437376
2018-12-20T01:13:32.278Z,6.437376
2018-12-20T01:13:45.378Z,6.437376
2018-12-20T01:13:58.303Z,8.04672
2018-12-20T01:14:11.481Z,3.218688
2018-12-20T01:14:24.240Z,3.218688
2018-12-20T01:14:44.973Z,3.218688
2018-12-20T01:14:58.360Z,3.218688
2018-12-20T01:15:11.421Z,3.218688
2018-12-20T01:15:24.322Z,4.828032
2018-12-20T01:15:37.198Z,6.437376
2018-12-20T01:15:50.306Z,6.437376
2018-12-20T01:16:03.661Z,1.609344
2018-12-20T01:16:16.927Z,3.218688
2018-12-20T01:16:30.159Z,3.218688
2018-12-20T01:16:43.079Z,9.656064
2018-12-20T01:16:56.192Z,9.656064
2018-12-20T01:17:09.354Z,1.609344
2018-12-20T01:17:23.334Z,9.656064
2018-12-20T01:17:36.398Z,9.656064
2018-12-20T01:17:49.579Z,9.656064
2018-12-20T01:18:02.401Z,9.656064
2018-12-20T01:18:15.567Z,8.04672
2018-12-20T01:18:29.088Z,8.04672
2018-12-20T01:18:42.499Z,8.04672
2018-12-20T01:18:55.535Z,8.04672
2018-12-20T01:19:08.550Z,4.828032
2018-12-20T01:19:21.921Z,8.04672
2018-12-20T01:19:35.458Z,8.04672
2018-12-20T01:19:48.955Z,8.04672
2018-12-20T01:20:02.141Z,9.656064
2018-12-20T01:20:15.104Z,9.656064
2018-12-20T01:20:28.104Z,9.656064
2018-12-20T01:20:40.977Z,9.656064
2018-12-20T01:20:54.006Z,9.656064
2018-12-20T01:21:07.167Z,4.828032
2018-12-20T01:21:20.291Z,4.828032
2018-12-20T01:21:33.125Z,8.04672
2018-12-20T01:21:46.231Z,8.04672
2018-12-20T01:21:59.337Z,8.04672
2018-12-20T01:22:12.578Z,4.828032
2018-12-20T01:22:25.529Z,4.828032
2018-12-20T01:22:38.483Z,4.828032
2018-12-20T01:22:51.464Z,4.828032
2018-12-20T01:23:04.285Z,3.218688
2018-12-20T01:23:17.417Z,6.437376
2018-12-20T01:23:30.346Z,6.437376
2018-12-20T01:23:43.898Z,8.04672
2018-12-20T01:23:57.034Z,8.04672
2018-12-20T01:24:09.934Z,9.656064
2018-12-20T01:24:22.965Z,9.656064
2018-12-20T01:24:35.916Z,9.656064
2018-12-20T01:24:48.924Z,9.656064
2018-12-20T01:25:02.164Z,9.656064
2018-12-20T01:25:15.834Z,6.437376
2018-12-20T01:25:29.047Z,6.437376
2018-12-20T01:25:42.036Z,6.437376
2018-12-20T01:25:55.114Z,6.437376
2018-12-20T01:26:08.307Z,8.04672
2018-12-20T01:26:21.364Z,8.04672
2018-12-20T01:26:34.299Z,8.04672
2018-12-20T01:26:47.874Z,8.04672
2018-12-20T01:27:00.806Z,9.656064
2018-12-20T01:27:13.842Z,9.656064
2018-12-20T01:27:26.695Z,9.656064
2018-12-20T01:27:39.451Z,9.656064
2018-12-20T01:27:52.436Z,9.656064
2018-12-20T01:28:05.761Z,8.04672
2018-12-20T01:28:18.878Z,8.04672
2018-12-20T01:28:31.792Z,8.04672
2018-12-20T01:28:44.976Z,8.04672
2018-12-20T01:28:57.703Z,9.656064
2018-12-20T01:29:10.836Z,9.656064
2018-12-20T01:29:23.621Z,9.656064
2018-12-20T01:29:36.787Z,9.656064
2018-12-20T01:29:49.671Z,9.656064
2018-12-20T01:30:02.675Z,9.656064
2018-12-20T01:30:16.191Z,8.04672
2018-12-20T01:30:29.202Z,8.04672
2018-12-20T01:30:42.221Z,8.04672
2018-12-20T01:30:55.329Z,8.04672
2018-12-20T01:31:07.952Z,8.04672
2018-12-20T01:31:21.223Z,8.04672
2018-12-20T01:31:34.000Z,8.04672
2018-12-20T01:31:47.304Z,8.04672
2018-12-20T01:32:00.062Z,8.04672
2018-12-20T01:32:13.291Z,6.437376
2018-12-20T01:32:26.309Z,8.04672
2018-12-20T01:32:39.331Z,9.656064
2018-12-20T01:32:52.383Z,9.656064
2018-12-20T01:33:05.259Z,3.218688
2018-12-20T01:33:18.082Z,8.04672
2018-12-20T01:33:31.288Z,8.04672
2018-12-20T01:33:44.266Z,8.04672
2018-12-20T01:33:57.585Z,8.04672
2018-12-20T01:34:10.479Z,4.828032
2018-12-20T01:34:23.845Z,4.828032
2018-12-20T01:34:36.735Z,6.437376
2018-12-20T01:34:49.638Z,8.04672
2018-12-20T01:35:02.506Z,8.04672
2018-12-20T01:35:15.275Z,3.218688
2018-12-20T01:35:28.144Z,3.218688
2018-12-20T01:35:41.285Z,3.218688
2018-12-20T01:35:54.228Z,3.218688
2018-12-20T01:36:07.198Z,3.218688
2018-12-20T01:36:20.110Z,3.218688
2018-12-20T01:36:33.674Z,3.218688
2018-12-20T01:36:46.374Z,6.437376
2018-12-20T01:36:59.363Z,8.04672
2018-12-20T01:37:12.239Z,9.656064
2018-12-20T01:37:24.966Z,9.656064
2018-12-20T01:37:37.650Z,9.656064
2018-12-20T01:37:50.433Z,9.656064
2018-12-20T01:38:03.129Z,6.437376
2018-12-20T01:38:15.692Z,8.04672
2018-12-20T01:38:28.599Z,8.04672
2018-12-20T01:38:41.586Z,9.656064
2018-12-20T01:38:54.000Z,9.656064
2018-12-20T01:39:07.498Z,3.218688
2018-12-20T01:39:20.409Z,3.218688
2018-12-20T01:39:33.289Z,4.828032
2018-12-20T01:39:46.218Z,4.828032
2018-12-20T01:39:59.214Z,4.828032
2018-12-20T01:40:12.296Z,3.218688
2018-12-20T01:40:24.988Z,3.218688
2018-12-20T01:40:37.612Z,3.218688
2018-12-20T01:40:50.471Z,4.828032
2018-12-20T01:41:03.468Z,6.437376
2018-12-20T01:41:16.639Z,6.437376
2018-12-20T01:41:29.537Z,6.437376
2018-12-20T01:41:42.732Z,8.04672
2018-12-20T01:41:55.249Z,8.04672
2018-12-20T01:42:07.833Z,6.437376
2018-12-20T01:42:20.771Z,6.437376
2018-12-20T01:42:33.623Z,6.437376
2018-12-20T01:42:46.748Z,6.437376
2018-12-20T01:42:59.702Z,6.437376
2018-12-20T01:43:12.619Z,3.218688
2018-12-20T01:43:25.481Z,3.218688
2018-12-20T01:43:38.231Z,3.218688
2018-12-20T01:43:50.811Z,6.437376
2018-12-20T01:44:03.582Z,6.437376
2018-12-20T01:44:16.579Z,8.04672
2018-12-20T01:44:29.243Z,8.04672
2018-12-20T01:44:42.185Z,8.04672
2018-12-20T01:45:03.121Z,3.218688
2018-12-20T01:45:15.583Z,3.218688
2018-12-20T01:45:28.328Z,3.218688
2018-12-20T01:45:40.860Z,4.828032
2018-12-20T01:45:53.696Z,4.828032
2018-12-20T01:46:06.561Z,3.218688
2018-12-20T01:46:19.431Z,3.218688
2018-12-20T01:46:32.628Z,4.828032
2018-12-20T01:46:45.241Z,8.04672
2018-12-20T01:46:58.063Z,8.04672
2018-12-20T01:47:10.517Z,3.218688
2018-12-20T01:47:23.572Z,3.218688
2018-12-20T01:47:36.079Z,3.218688
2018-12-20T01:47:48.849Z,6.437376
2018-12-20T01:48:01.532Z,6.437376
2018-12-20T01:48:14.524Z,6.437376
2018-12-20T01:48:27.178Z,6.437376
2018-12-20T01:48:39.861Z,6.437376
2018-12-20T01:48:52.845Z,6.437376
2018-12-20T01:49:05.886Z,4.828032
2018-12-20T01:49:18.904Z,6.437376
2018-12-20T01:49:31.476Z,6.437376
2018-12-20T01:49:44.190Z,6.437376
2018-12-20T01:49:56.713Z,6.437376
2018-12-20T01:50:09.557Z,8.04672
2018-12-20T01:50:22.194Z,8.04672
2018-12-20T01:50:34.843Z,8.04672
2018-12-20T01:50:47.321Z,8.04672
2018-12-20T01:51:00.293Z,11.265408
2018-12-20T01:51:13.174Z,8.04672
2018-12-20T01:51:25.829Z,9.656064
2018-12-20T01:51:38.631Z,9.656064
2018-12-20T01:51:51.199Z,9.656064
2018-12-20T01:52:03.750Z,6.437376
2018-12-20T01:52:16.566Z,6.437376
2018-12-20T01:52:29.231Z,6.437376
2018-12-20T01:52:41.961Z,6.437376
2018-12-20T01:52:54.813Z,6.437376
2018-12-20T01:53:07.812Z,6.437376
2018-12-20T01:53:20.552Z,6.437376
2018-12-20T01:53:33.660Z,6.437376
2018-12-20T01:53:46.361Z,6.437376
2018-12-20T01:53:58.887Z,6.437376
2018-12-20T01:54:11.670Z,3.218688
2018-12-20T01:54:24.257Z,3.218688
2018-12-20T01:54:37.472Z,3.218688
2018-12-20T01:54:50.137Z,3.218688
2018-12-20T01:55:03.087Z,6.437376
2018-12-20T01:55:15.847Z,8.04672
2018-12-20T01:55:28.708Z,9.656064
2018-12-20T01:55:41.524Z,9.656064
2018-12-20T01:55:54.164Z,9.656064
2018-12-20T01:56:06.923Z,4.828032
2018-12-20T01:56:19.635Z,8.04672
2018-12-20T01:56:32.777Z,9.656064
2018-12-20T01:56:45.653Z,9.656064
2018-12-20T01:56:58.709Z,9.656064
2018-12-20T01:57:11.549Z,8.04672
2018-12-20T01:57:24.342Z,9.656064
2018-12-20T01:57:37.373Z,9.656064
2018-12-20T01:57:50.232Z,9.656064
2018-12-20T01:58:03.096Z,8.04672
2018-12-20T01:58:15.828Z,9.656064
2018-12-20T01:58:28.597Z,9.656064
2018-12-20T01:58:41.849Z,9.656064
2018-12-20T01:58:54.670Z,9.656064
2018-12-20T01:59:07.817Z,8.04672
2018-12-20T01:59:20.473Z,9.656064
2018-12-20T01:59:33.369Z,9.656064
2018-12-20T01:59:46.211Z,9.656064
2018-12-20T01:59:59.329Z,9.656064
2018-12-20T02:00:12.084Z,6.437376
2018-12-20T02:00:25.415Z,8.04672
2018-12-20T02:00:38.605Z,8.04672
2018-12-20T02:00:51.666Z,8.04672
2018-12-20T02:01:04.246Z,9.656064
2018-12-20T02:01:17.292Z,9.656064
2018-12-20T02:01:30.458Z,9.656064
2018-12-20T02:01:43.347Z,9.656064
2018-12-20T02:01:56.294Z,9.656064
2018-12-20T02:02:09.382Z,8.04672
2018-12-20T02:02:22.631Z,8.04672
2018-12-20T02:02:35.315Z,9.656064
2018-12-20T02:02:47.818Z,11.265408
2018-12-20T02:03:00.406Z,11.265408
2018-12-20T02:03:13.297Z,8.04672
2018-12-20T02:03:26.130Z,11.265408
2018-12-20T02:03:38.990Z,11.265408
2018-12-20T02:03:51.820Z,12.874752
2018-12-20T02:04:04.885Z,9.656064
2018-12-20T02:04:17.761Z,9.656064
2018-12-20T02:04:30.696Z,9.656064
2018-12-20T02:04:43.665Z,9.656064
2018-12-20T02:04:56.205Z,12.874752
2018-12-20T02:05:09.566Z,9.656064
2018-12-20T02:05:22.552Z,9.656064
2018-12-20T02:05:35.246Z,9.656064
2018-12-20T02:05:48.074Z,9.656064
2018-12-20T02:06:00.716Z,9.656064
2018-12-20T02:06:13.369Z,8.04672
2018-12-20T02:06:26.326Z,8.04672
2018-12-20T02:06:39.285Z,8.04672
2018-12-20T02:06:52.266Z,11.265408
2018-12-20T02:07:05.201Z,12.874752
2018-12-20T02:07:17.883Z,12.874752
2018-12-20T02:07:30.929Z,12.874752
2018-12-20T02:07:43.919Z,12.874752
2018-12-20T02:07:56.853Z,12.874752
2018-12-20T02:08:09.738Z,9.656064
2018-12-20T02:08:22.430Z,9.656064
2018-12-20T02:08:35.204Z,9.656064
2018-12-20T02:08:48.065Z,9.656064
2018-12-20T02:09:00.755Z,9.656064
2018-12-20T02:09:13.959Z,6.437376
2018-12-20T02:09:27.119Z,8.04672
2018-12-20T02:09:40.340Z,8.04672
2018-12-20T02:09:53.120Z,8.04672
2018-12-20T02:10:06.333Z,6.437376
2018-12-20T02:10:19.364Z,8.04672
2018-12-20T02:10:31.981Z,9.656064
2018-12-20T02:10:44.810Z,9.656064
2018-12-20T02:10:57.764Z,9.656064
2018-12-20T02:11:10.516Z,4.828032
2018-12-20T02:11:23.242Z,6.437376
2018-12-20T02:11:35.799Z,8.04672
2018-12-20T02:11:48.523Z,8.04672
2018-12-20T02:12:01.080Z,8.04672
2018-12-20T02:12:13.648Z,3.218688
2018-12-20T02:12:26.744Z,3.218688
2018-12-20T02:12:39.744Z,6.437376
2018-12-20T02:12:52.824Z,6.437376
2018-12-20T02:13:05.493Z,3.218688
2018-12-20T02:13:18.411Z,3.218688
2018-12-20T02:13:31.144Z,6.437376
2018-12-20T02:13:44.258Z,6.437376
2018-12-20T02:13:56.882Z,8.04672
2018-12-20T02:14:10.022Z,4.828032
2018-12-20T02:14:22.630Z,4.828032
2018-12-20T02:14:35.443Z,6.437376
2018-12-20T02:14:47.964Z,9.656064
2018-12-20T02:15:08.724Z,8.04672
2018-12-20T02:15:21.849Z,8.04672
2018-12-20T02:15:34.585Z,8.04672
2018-12-20T02:15:47.380Z,8.04672
2018-12-20T02:16:00.178Z,8.04672
2018-12-20T02:16:12.990Z,6.437376
2018-12-20T02:16:25.942Z,6.437376
2018-12-20T02:16:38.801Z,6.437376
2018-12-20T02:16:51.467Z,6.437376
2018-12-20T02:17:04.634Z,3.218688
2018-12-20T02:17:17.273Z,4.828032
2018-12-20T02:17:30.482Z,8.04672
2018-12-20T02:17:43.250Z,8.04672
2018-12-20T02:17:56.031Z,8.04672
2018-12-20T02:18:09.325Z,8.04672
2018-12-20T02:18:22.425Z,8.04672
2018-12-20T02:18:35.463Z,8.04672
2018-12-20T02:18:48.468Z,8.04672
2018-12-20T02:19:01.543Z,8.04672
2018-12-20T02:19:14.140Z,8.04672
2018-12-20T02:19:26.768Z,8.04672
2018-12-20T02:19:39.777Z,8.04672
2018-12-20T02:19:52.542Z,8.04672
2018-12-20T02:20:05.480Z,3.218688
2018-12-20T02:20:18.550Z,8.04672
2018-12-20T02:20:31.316Z,8.04672
2018-12-20T02:20:43.854Z,8.04672
2018-12-20T02:20:56.745Z,8.04672
2018-12-20T02:21:09.974Z,3.218688
2018-12-20T02:21:22.827Z,4.828032
2018-12-20T02:21:35.766Z,4.828032
2018-12-20T02:21:48.553Z,4.828032
2018-12-20T02:22:01.555Z,4.828032
2018-12-20T02:22:14.667Z,4.828032
2018-12-20T02:22:27.791Z,4.828032
2018-12-20T02:22:40.774Z,4.828032
2018-12-20T02:22:53.674Z,8.04672
2018-12-20T02:23:06.998Z,6.437376
2018-12-20T02:23:20.157Z,8.04672
2018-12-20T02:23:33.320Z,8.04672
2018-12-20T02:23:46.235Z,8.04672
2018-12-20T02:23:59.411Z,8.04672
2018-12-20T02:24:12.336Z,4.828032
2018-12-20T02:24:25.361Z,6.437376
2018-12-20T02:24:39.073Z,6.437376
2018-12-20T02:24:52.178Z,8.04672
2018-12-20T02:25:05.336Z,3.218688
2018-12-20T02:25:18.023Z,6.437376
2018-12-20T02:25:30.916Z,8.04672
2018-12-20T02:25:43.823Z,8.04672
2018-12-20T02:25:56.496Z,8.04672
2018-12-20T02:26:09.103Z,3.218688
2018-12-20T02:26:22.184Z,8.04672
2018-12-20T02:26:34.886Z,8.04672
2018-12-20T02:26:48.107Z,8.04672
2018-12-20T02:27:00.864Z,8.04672
2018-12-20T02:27:14.057Z,8.04672
2018-12-20T02:27:27.111Z,8.04672
2018-12-20T02:27:40.240Z,8.04672
2018-12-20T02:27:53.231Z,8.04672
2018-12-20T02:28:06.513Z,8.04672
2018-12-20T02:28:19.426Z,9.656064
2018-12-20T02:28:32.331Z,9.656064
2018-12-20T02:28:45.536Z,9.656064
2018-12-20T02:28:58.541Z,9.656064
2018-12-20T02:29:11.921Z,8.04672
2018-12-20T02:29:24.880Z,8.04672
2018-12-20T02:29:38.102Z,8.04672
2018-12-20T02:29:51.110Z,9.656064
2018-12-20T02:30:03.884Z,8.04672
2018-12-20T02:30:17.651Z,8.04672
2018-12-20T02:30:31.478Z,8.04672
2018-12-20T02:30:45.669Z,8.04672
2018-12-20T02:30:58.983Z,8.04672
2018-12-20T02:31:12.145Z,6.437376
2018-12-20T02:31:25.644Z,6.437376
2018-12-20T02:31:39.268Z,6.437376
2018-12-20T02:31:54.485Z,6.437376
2018-12-20T02:32:07.803Z,8.04672
2018-12-20T02:32:20.541Z,8.04672
2018-12-20T02:32:34.087Z,8.04672
2018-12-20T02:32:47.115Z,9.656064
2018-12-20T02:33:00.202Z,9.656064
2018-12-20T02:33:13.648Z,6.437376
2018-12-20T02:33:27.166Z,6.437376
2018-12-20T02:33:40.373Z,8.04672
2018-12-20T02:33:53.494Z,8.04672
2018-12-20T02:34:06.649Z,9.656064
2018-12-20T02:34:19.915Z,9.656064
2018-12-20T02:34:33.410Z,9.656064
2018-12-20T02:34:46.809Z,9.656064